Ramla, Israel
Current Conditions -  °F | °C
As of 8:50 PM on Thursday 23 Oct 2014 (Local Time) from LLBG Reporting Station
Clear Clear  
Wind Chill: 73°   Ceiling: Unl
Heat Index: 73°   Visibility: 6mi
Dew Point: 59°   Wind: 5mph
Humidity: 61%   Direction: 140°SE
Pressure: 30.03"   Gusts: NA
Location:  31.93°N, 34.86°E
Report Text: LLBG 231750Z 14004KT CAVOK 23/15 Q1017 NOSIG
Loading
Personal Weather Stations






























Interactive Weather Map
Tropical Storm Tracking
New forecast layout! Learn more

10-Day Weather Forecast

Advertisements
Track Severe Weather on mobile